Time;durP1;ratioP1;P1;durP2;ratioP2;P2;SDS_P1;SDS_P2;PMS_P1;PMS_P2;Temp;Humidity;BMP_temperature;BMP_pressure;BME280_temperature;BME280_humidity;BME280_pressure;Samples;Min_cycle;Max_cycle;Signal;HPM_P1;HPM_P2
2022/12/10 00:01:23;;;;;;;21.03;17.27;;;1.20;99.90;;;;;;5020676;28;20270;-76
2022/12/10 00:03:49;;;;;;;19.77;15.43;;;1.30;99.90;;;;;;5022922;28;20183;-76
2022/12/10 00:06:18;;;;;;;17.33;15.10;;;1.30;99.90;;;;;;5022210;28;20235;-76
2022/12/10 00:08:44;;;;;;;18.23;14.10;;;1.30;99.90;;;;;;5021525;28;20184;-76
2022/12/10 00:11:13;;;;;;;18.17;14.93;;;1.30;99.90;;;;;;5020439;28;20191;-76
2022/12/10 00:13:40;;;;;;;17.57;14.80;;;1.40;99.90;;;;;;5020666;28;20583;-76
2022/12/10 00:16:09;;;;;;;18.50;14.80;;;1.50;99.90;;;;;;5019474;28;20309;-76
2022/12/10 00:18:35;;;;;;;19.03;15.80;;;1.50;99.90;;;;;;5019916;28;20178;-76
2022/12/10 00:21:06;;;;;;;20.47;16.27;;;1.60;99.90;;;;;;5018133;28;20270;-76
2022/12/10 00:23:33;;;;;;;21.17;17.33;;;1.40;99.90;;;;;;5018155;28;20180;-76
2022/12/10 00:26:10;;;;;;;19.57;15.57;;;1.50;99.90;;;;;;5018287;28;20724;-76
2022/12/10 00:28:37;;;;;;;21.20;15.77;;;1.50;99.90;;;;;;5018006;28;20190;-76
2022/12/10 00:31:26;;;;;;;18.93;15.67;;;1.60;99.90;;;;;;5018245;28;20215;-76
2022/12/10 00:33:58;;;;;;;20.37;16.27;;;1.60;99.90;;;;;;5018285;28;20720;-76
2022/12/10 00:36:31;;;;;;;19.93;16.90;;;1.50;99.90;;;;;;5018631;28;20222;-76
2022/12/10 00:38:58;;;;;;;21.27;17.20;;;1.50;99.90;;;;;;5018614;28;20260;-76
2022/12/10 00:41:24;;;;;;;20.03;16.90;;;1.50;99.90;;;;;;5017681;28;20184;-76
2022/12/10 00:43:50;;;;;;;22.07;17.80;;;1.60;99.90;;;;;;5015564;28;20274;-76
2022/12/10 00:46:31;;;;;;;21.70;17.30;;;1.60;99.90;;;;;;5016949;28;20203;-76
2022/12/10 00:49:05;;;;;;;20.97;17.53;;;1.50;99.90;;;;;;5016394;28;20595;-76
2022/12/10 00:51:34;;;;;;;20.33;16.63;;;1.50;99.90;;;;;;5016135;28;20186;-77
2022/12/10 00:54:01;;;;;;;24.07;18.27;;;1.40;99.90;;;;;;5016129;28;20237;-76
2022/12/10 00:56:47;;;;;;;22.10;17.83;;;1.30;99.90;;;;;;5015105;28;20635;-76
2022/12/10 00:59:13;;;;;;;23.00;16.13;;;1.30;99.90;;;;;;5016629;28;20176;-76
2022/12/10 01:01:41;;;;;;;21.60;17.30;;;1.40;99.90;;;;;;5018097;28;20244;-76
2022/12/10 01:04:11;;;;;;;22.60;18.20;;;1.40;99.90;;;;;;5019833;28;20184;-76
2022/12/10 01:06:43;;;;;;;20.53;17.43;;;1.40;99.90;;;;;;5014980;28;20203;-75
2022/12/10 01:09:11;;;;;;;22.33;17.43;;;1.40;99.90;;;;;;5014720;28;20194;-75
2022/12/10 01:11:39;;;;;;;21.50;16.97;;;1.40;99.90;;;;;;5014743;28;20186;-75
2022/12/10 01:14:07;;;;;;;20.73;17.10;;;1.30;99.90;;;;;;5016327;28;20192;-75
2022/12/10 01:16:32;;;;;;;21.83;17.70;;;1.30;99.90;;;;;;5014524;28;20219;-75
2022/12/10 01:18:58;;;;;;;21.23;17.47;;;1.30;99.90;;;;;;5014525;28;20179;-75
2022/12/10 01:21:26;;;;;;;20.40;16.73;;;1.40;99.90;;;;;;5014948;28;20183;-75
2022/12/10 01:23:52;;;;;;;22.00;17.10;;;1.40;99.90;;;;;;5014995;28;20199;-75
2022/12/10 01:26:23;;;;;;;21.70;17.67;;;1.40;99.90;;;;;;5014492;28;20200;-75
2022/12/10 01:28:51;;;;;;;21.03;16.77;;;1.40;99.90;;;;;;5015822;28;20168;-75
2022/12/10 01:31:22;;;;;;;20.83;17.77;;;1.30;99.90;;;;;;5014680;28;20187;-75
2022/12/10 01:33:49;;;;;;;23.20;17.67;;;1.30;99.90;;;;;;5013203;28;20184;-75
2022/12/10 01:39:37;;;;;;;21.87;17.20;;;1.40;99.90;;;;;;5014862;28;20186;-75
2022/12/10 01:42:03;;;;;;;20.70;16.60;;;1.40;99.90;;;;;;5013361;28;20368;-76
2022/12/10 01:44:43;;;;;;;20.03;17.20;;;1.40;99.90;;;;;;5013263;28;20176;-76
2022/12/10 01:47:09;;;;;;;22.90;18.47;;;1.30;99.90;;;;;;5014349;28;20163;-75
2022/12/10 01:49:38;;;;;;;23.80;18.03;;;1.20;99.90;;;;;;5013950;28;20254;-76
2022/12/10 01:52:05;;;;;;;23.27;18.13;;;1.20;99.90;;;;;;5012790;28;20183;-76
2022/12/10 01:54:38;;;;;;;23.50;18.67;;;1.10;99.90;;;;;;5013032;28;20190;-75
2022/12/10 01:57:20;;;;;;;23.33;18.10;;;1.10;99.90;;;;;;5012837;28;20199;-75
2022/12/10 01:59:54;;;;;;;23.37;18.40;;;1.10;99.90;;;;;;5012973;28;20168;-75
2022/12/10 02:02:43;;;;;;;23.70;17.97;;;1.10;99.90;;;;;;5012990;28;20170;-75
2022/12/10 02:05:14;;;;;;;24.67;17.47;;;1.10;99.90;;;;;;5014255;28;20199;-75
2022/12/10 02:07:53;;;;;;;21.80;17.83;;;1.10;99.90;;;;;;5012767;28;20661;-75
2022/12/10 02:10:50;;;;;;;21.70;17.97;;;1.10;99.90;;;;;;5013078;28;20183;-76
2022/12/10 02:13:30;;;;;;;22.70;18.27;;;1.10;99.90;;;;;;5013859;28;20179;-76
2022/12/10 02:16:02;;;;;;;21.27;16.87;;;1.00;99.90;;;;;;5012431;28;20215;-75
2022/12/10 02:18:36;;;;;;;21.03;16.73;;;1.00;99.90;;;;;;5014066;28;20184;-76
2022/12/10 02:21:08;;;;;;;19.87;16.17;;;1.10;99.90;;;;;;5014130;28;20298;-76
2022/12/10 02:23:42;;;;;;;24.17;17.63;;;1.10;99.90;;;;;;5013546;28;20176;-76
2022/12/10 02:26:19;;;;;;;22.73;17.40;;;1.10;99.90;;;;;;5012569;28;20261;-75
2022/12/10 02:28:56;;;;;;;22.17;17.83;;;1.10;99.90;;;;;;5013407;28;20190;-76
2022/12/10 02:31:28;;;;;;;21.43;17.53;;;1.10;99.90;;;;;;4995559;28;20195;-76
2022/12/10 02:33:58;;;;;;;24.13;18.20;;;1.10;99.90;;;;;;5014006;28;20259;-76
2022/12/10 02:36:28;;;;;;;23.03;17.93;;;1.10;99.90;;;;;;5012385;28;20229;-75
2022/12/10 02:38:56;;;;;;;21.83;18.00;;;1.10;99.90;;;;;;5012506;28;20238;-75
2022/12/10 02:41:34;;;;;;;22.10;17.00;;;1.10;99.90;;;;;;5012593;28;20214;-75
2022/12/10 02:44:04;;;;;;;23.10;18.20;;;1.10;99.90;;;;;;5013389;28;20175;-75
2022/12/10 02:46:32;;;;;;;19.57;15.43;;;1.00;99.90;;;;;;5016719;28;20227;-75
2022/12/10 02:48:59;;;;;;;22.13;17.17;;;1.00;99.90;;;;;;5016461;28;20191;-75
2022/12/10 02:51:26;;;;;;;20.93;16.40;;;1.00;99.90;;;;;;5017642;28;20175;-75
2022/12/10 02:54:03;;;;;;;21.20;16.17;;;1.00;99.90;;;;;;5016219;28;20187;-75
2022/12/10 02:56:51;;;;;;;21.97;17.17;;;1.00;99.90;;;;;;5017380;28;20240;-75
2022/12/10 02:59:28;;;;;;;22.23;16.37;;;1.10;99.90;;;;;;5016322;28;20171;-75
2022/12/10 03:02:05;;;;;;;20.17;16.73;;;1.10;99.90;;;;;;5017083;28;20178;-75
2022/12/10 03:04:31;;;;;;;22.97;17.27;;;1.20;99.90;;;;;;5016622;28;20182;-75
2022/12/10 03:07:04;;;;;;;21.87;16.57;;;1.20;99.90;;;;;;5016655;28;20180;-75
2022/12/10 03:09:43;;;;;;;20.27;16.93;;;1.30;99.90;;;;;;5016121;28;20175;-75
2022/12/10 03:12:35;;;;;;;20.63;16.27;;;1.30;99.90;;;;;;5016090;28;20175;-75
2022/12/10 03:15:04;;;;;;;21.50;17.47;;;1.30;99.90;;;;;;5015310;28;20211;-75
2022/12/10 03:17:31;;;;;;;20.90;16.37;;;1.20;99.90;;;;;;5017003;28;20199;-75
2022/12/10 03:19:58;;;;;;;23.93;16.80;;;1.20;99.90;;;;;;5015798;28;20653;-75
2022/12/10 03:22:23;;;;;;;21.23;16.73;;;1.20;99.90;;;;;;5015811;28;20664;-75
2022/12/10 03:24:50;;;;;;;21.27;17.30;;;1.10;99.90;;;;;;5017085;28;20191;-75
2022/12/10 03:27:19;;;;;;;21.27;17.13;;;1.10;99.90;;;;;;5016991;28;20184;-75
2022/12/10 03:29:48;;;;;;;20.53;16.33;;;1.10;99.90;;;;;;5016848;28;20246;-75
2022/12/10 03:32:55;;;;;;;21.63;16.87;;;1.10;99.90;;;;;;5015537;28;20187;-75
2022/12/10 03:35:23;;;;;;;21.80;16.20;;;1.10;99.90;;;;;;5015601;28;20199;-75
2022/12/10 03:37:49;;;;;;;20.80;15.87;;;1.10;99.90;;;;;;5016334;28;20207;-75
2022/12/10 03:40:17;;;;;;;21.37;16.93;;;1.10;99.90;;;;;;5015454;28;20187;-75
2022/12/10 03:42:43;;;;;;;20.73;16.60;;;1.00;99.90;;;;;;5016894;28;20198;-75
2022/12/10 03:45:09;;;;;;;20.33;16.90;;;1.00;99.90;;;;;;5015240;28;20662;-75
2022/12/10 03:47:35;;;;;;;21.70;16.70;;;0.90;99.90;;;;;;5016811;28;20198;-75
2022/12/10 03:50:00;;;;;;;21.13;15.87;;;0.90;99.90;;;;;;5015355;28;20175;-75
2022/12/10 03:52:26;;;;;;;22.37;17.23;;;0.90;99.90;;;;;;5015556;28;20274;-75
2022/12/10 03:54:51;;;;;;;23.07;18.20;;;0.90;99.90;;;;;;5015210;28;20200;-75
2022/12/10 03:57:17;;;;;;;20.47;16.63;;;0.90;99.90;;;;;;5016267;28;20210;-75
2022/12/10 03:59:42;;;;;;;24.03;18.63;;;0.90;99.90;;;;;;5016869;28;20183;-75
2022/12/10 04:05:30;;;;;;;43.03;27.80;;;1.00;99.90;;;;;;5016240;28;20229;-75
2022/12/10 04:07:56;;;;;;;50.77;30.40;;;0.90;99.90;;;;;;5016440;28;20207;-75
2022/12/10 04:10:21;;;;;;;34.67;24.07;;;1.00;99.90;;;;;;5015409;28;20187;-75
2022/12/10 04:16:26;;;;;;;28.43;20.90;;;1.10;99.90;;;;;;5014845;28;20207;-75
2022/12/10 04:18:16;;;;;;;25.23;20.13;;;1.00;99.90;;;;;;5016624;28;20211;-75
2022/12/10 04:28:55;;;;;;;23.57;18.63;;;0.90;99.90;;;;;;5016397;28;20223;-75
2022/12/10 04:31:21;;;;;;;25.23;18.73;;;1.00;99.90;;;;;;5014603;28;20203;-75
2022/12/10 04:33:46;;;;;;;26.07;20.77;;;1.00;99.90;;;;;;5014470;28;20190;-75
2022/12/10 04:36:12;;;;;;;28.07;21.60;;;1.00;99.90;;;;;;5014608;28;20218;-75
2022/12/10 04:38:37;;;;;;;25.30;20.03;;;1.00;99.90;;;;;;5014426;28;20190;-75
2022/12/10 04:41:15;;;;;;;24.67;19.97;;;1.00;99.90;;;;;;5015532;28;20171;-75
2022/12/10 04:43:41;;;;;;;28.87;21.43;;;1.00;99.90;;;;;;5016157;28;20155;-75
2022/12/10 04:46:06;;;;;;;27.80;21.93;;;1.00;99.90;;;;;;5015426;28;20203;-75
2022/12/10 04:48:32;;;;;;;49.53;34.67;;;1.00;99.90;;;;;;5014003;28;20199;-75
2022/12/10 04:50:58;;;;;;;35.37;26.33;;;0.90;99.90;;;;;;5015228;28;20214;-75
2022/12/10 04:53:23;;;;;;;31.30;22.37;;;0.90;99.90;;;;;;5014097;28;20191;-75
2022/12/10 04:55:49;;;;;;;26.00;19.93;;;0.90;99.90;;;;;;5013911;28;20200;-75
2022/12/10 04:58:14;;;;;;;25.53;19.77;;;0.90;99.90;;;;;;5014054;28;20186;-75
2022/12/10 05:00:40;;;;;;;80.40;43.30;;;1.00;99.90;;;;;;5014759;28;20171;-75
2022/12/10 05:03:05;;;;;;;56.80;34.90;;;0.90;99.90;;;;;;5014184;28;20182;-75
2022/12/10 05:05:33;;;;;;;44.67;28.50;;;1.00;99.90;;;;;;5014599;28;20199;-75
2022/12/10 05:07:58;;;;;;;35.80;24.70;;;1.00;99.90;;;;;;5014375;28;20339;-75
2022/12/10 05:10:24;;;;;;;28.43;21.10;;;1.10;99.90;;;;;;5014176;28;20295;-75
2022/12/10 05:12:49;;;;;;;26.13;20.10;;;1.10;99.90;;;;;;5014109;28;20191;-75
2022/12/10 05:15:15;;;;;;;25.27;19.77;;;1.10;99.90;;;;;;5015180;28;20192;-75
2022/12/10 05:17:40;;;;;;;26.50;20.53;;;1.20;99.90;;;;;;5013540;28;20211;-75
2022/12/10 05:20:07;;;;;;;26.07;19.77;;;1.20;99.90;;;;;;5014772;28;20211;-75
2022/12/10 05:25:16;;;;;;;22.87;17.63;;;1.30;99.90;;;;;;5014698;28;20249;-75
2022/12/10 05:27:42;;;;;;;21.80;17.27;;;1.30;99.90;;;;;;5013757;28;20180;-75
2022/12/10 05:30:09;;;;;;;21.10;16.90;;;1.20;99.90;;;;;;5013505;28;20183;-75
2022/12/10 05:32:35;;;;;;;21.90;15.83;;;1.10;99.90;;;;;;5014270;28;20206;-75
2022/12/10 05:35:00;;;;;;;20.33;16.70;;;1.10;99.90;;;;;;5013371;28;20234;-75
2022/12/10 05:37:27;;;;;;;19.80;15.23;;;1.10;99.90;;;;;;5013248;28;20732;-75
2022/12/10 05:39:52;;;;;;;20.97;16.00;;;1.00;99.90;;;;;;5013247;28;20184;-75
2022/12/10 05:42:18;;;;;;;21.67;16.70;;;0.90;99.90;;;;;;5013440;28;20186;-75
2022/12/10 05:44:43;;;;;;;22.93;17.67;;;0.80;99.90;;;;;;5013057;28;20206;-75
2022/12/10 05:47:09;;;;;;;23.53;18.97;;;0.80;99.90;;;;;;5013667;28;20186;-75
2022/12/10 05:49:34;;;;;;;22.37;17.80;;;0.80;99.90;;;;;;5013409;28;20198;-75
2022/12/10 05:52:00;;;;;;;24.97;19.00;;;0.80;99.90;;;;;;5014134;28;20184;-75
2022/12/10 05:54:25;;;;;;;22.70;18.10;;;0.90;99.90;;;;;;5013207;28;20249;-75
2022/12/10 05:56:51;;;;;;;22.07;17.13;;;1.00;99.90;;;;;;5012900;28;20735;-75
2022/12/10 05:59:16;;;;;;;21.93;16.70;;;1.00;99.90;;;;;;5014133;28;20186;-75
2022/12/10 06:01:42;;;;;;;20.87;16.60;;;1.10;99.90;;;;;;5012843;28;20175;-75
2022/12/10 06:04:09;;;;;;;23.40;17.60;;;1.10;99.90;;;;;;5014104;28;20214;-75
2022/12/10 06:06:37;;;;;;;21.87;16.70;;;1.00;99.90;;;;;;5013010;28;20207;-75
2022/12/10 06:09:04;;;;;;;20.03;16.37;;;1.10;99.90;;;;;;5014012;28;20231;-75
2022/12/10 06:11:29;;;;;;;20.73;16.13;;;1.10;99.90;;;;;;5013631;28;20188;-75
2022/12/10 06:13:56;;;;;;;20.60;16.57;;;1.20;99.90;;;;;;5013936;28;20237;-75
2022/12/10 06:16:23;;;;;;;18.70;16.03;;;1.20;99.90;;;;;;5012502;28;20207;-75
2022/12/10 06:18:49;;;;;;;18.60;15.57;;;1.20;99.90;;;;;;5012910;28;20206;-75
2022/12/10 06:21:15;;;;;;;20.73;16.90;;;1.20;99.90;;;;;;5013863;28;20171;-75
2022/12/10 06:23:41;;;;;;;26.33;19.57;;;1.10;99.90;;;;;;5014056;28;20638;-75
2022/12/10 06:26:08;;;;;;;23.80;18.67;;;1.10;99.90;;;;;;5012575;28;20288;-75
2022/12/10 06:28:34;;;;;;;22.63;18.60;;;1.20;99.90;;;;;;5013684;28;20202;-75
2022/12/10 06:31:00;;;;;;;21.90;17.93;;;1.20;99.90;;;;;;5013654;28;20182;-75
2022/12/10 06:33:26;;;;;;;23.00;18.20;;;1.30;99.90;;;;;;5013287;28;20183;-75
2022/12/10 06:35:52;;;;;;;26.00;20.27;;;1.40;99.90;;;;;;5012579;28;20195;-75
2022/12/10 06:38:18;;;;;;;27.70;21.47;;;1.30;99.90;;;;;;5012472;28;20201;-75
2022/12/10 06:40:43;;;;;;;31.73;22.53;;;1.40;99.90;;;;;;5013619;28;20184;-75
2022/12/10 06:43:09;;;;;;;33.27;23.17;;;1.30;99.90;;;;;;5013469;28;20176;-75
2022/12/10 06:45:38;;;;;;;29.40;21.73;;;1.30;99.90;;;;;;5013448;28;20234;-75
2022/12/10 06:48:04;;;;;;;37.77;29.33;;;1.30;99.90;;;;;;5012329;28;20214;-75
2022/12/10 06:50:30;;;;;;;42.30;32.07;;;1.20;99.90;;;;;;5012198;28;20180;-75
2022/12/10 06:52:55;;;;;;;37.07;29.77;;;1.30;99.90;;;;;;5012334;28;20186;-75
2022/12/10 06:55:21;;;;;;;36.23;28.30;;;1.30;99.90;;;;;;5013409;28;20274;-75
2022/12/10 06:57:50;;;;;;;33.50;26.23;;;1.20;99.90;;;;;;5013437;28;20223;-75
2022/12/10 07:00:15;;;;;;;34.43;26.90;;;1.30;99.90;;;;;;5013051;28;20536;-75
2022/12/10 07:02:41;;;;;;;31.30;25.37;;;1.30;99.90;;;;;;5012268;28;20266;-75
2022/12/10 07:08:29;;;;;;;27.33;21.40;;;1.30;99.90;;;;;;5013467;28;20163;-75
2022/12/10 07:10:54;;;;;;;36.10;25.43;;;1.30;99.90;;;;;;5012141;28;20172;-75
2022/12/10 07:13:20;;;;;;;44.50;30.37;;;1.30;99.90;;;;;;5012007;28;20191;-75
2022/12/10 07:15:46;;;;;;;54.07;35.30;;;1.30;99.90;;;;;;5012330;28;20204;-75
2022/12/10 07:18:11;;;;;;;50.97;33.87;;;1.30;99.90;;;;;;5013301;28;20657;-76
2022/12/10 07:20:37;;;;;;;30.37;22.90;;;1.30;99.90;;;;;;5012041;28;20186;-76
2022/12/10 07:23:02;;;;;;;28.17;21.47;;;1.30;99.90;;;;;;5012328;28;20270;-76
2022/12/10 07:28:43;;;;;;;25.40;19.23;;;1.20;99.90;;;;;;5013788;28;20168;-75
2022/12/10 07:31:09;;;;;;;25.40;20.37;;;1.20;99.90;;;;;;5016058;28;20248;-75
2022/12/10 07:33:36;;;;;;;26.80;20.70;;;1.20;99.90;;;;;;5016185;28;20243;-76
2022/12/10 07:36:09;;;;;;;25.87;19.47;;;1.20;99.90;;;;;;5016999;28;20224;-75
2022/12/10 07:42:11;;;;;;;26.03;18.60;;;1.30;99.90;;;;;;5016769;28;20218;-76
2022/12/10 07:44:36;;;;;;;27.87;19.93;;;1.40;99.90;;;;;;5016586;28;20182;-75
2022/12/10 07:47:02;;;;;;;24.63;19.23;;;1.40;99.90;;;;;;5015637;28;20183;-76
2022/12/10 07:49:29;;;;;;;29.40;19.00;;;1.40;99.90;;;;;;5015870;28;20245;-76
2022/12/10 07:51:55;;;;;;;24.17;19.50;;;1.40;99.90;;;;;;5016808;28;20171;-76
2022/12/10 07:57:33;;;;;;;24.50;18.83;;;1.50;99.90;;;;;;5016954;28;20207;-75
2022/12/10 07:59:59;;;;;;;23.83;19.00;;;1.50;99.90;;;;;;5015097;28;20175;-75
2022/12/10 08:02:24;;;;;;;24.67;19.30;;;1.50;99.90;;;;;;5015444;28;20183;-75
2022/12/10 08:04:50;;;;;;;24.83;19.50;;;1.50;99.90;;;;;;5015714;28;20262;-75
2022/12/10 08:07:15;;;;;;;25.77;19.27;;;1.60;99.90;;;;;;5016016;28;20179;-76
2022/12/10 08:09:41;;;;;;;25.27;19.57;;;1.60;99.90;;;;;;5016247;28;20176;-84
2022/12/10 08:12:06;;;;;;;23.13;19.03;;;1.60;99.90;;;;;;5014940;28;20215;-76
2022/12/10 08:14:32;;;;;;;24.53;19.40;;;1.70;99.90;;;;;;5014857;28;20210;-76
2022/12/10 08:16:58;;;;;;;25.93;20.23;;;1.60;99.90;;;;;;5014723;28;20258;-76
2022/12/10 08:19:23;;;;;;;25.33;19.13;;;1.60;99.90;;;;;;5015135;28;20190;-76
2022/12/10 08:21:49;;;;;;;31.73;24.23;;;1.60;99.90;;;;;;5014710;28;20186;-76
2022/12/10 08:24:14;;;;;;;25.37;20.17;;;1.70;99.90;;;;;;5014706;28;20179;-76
2022/12/10 08:26:40;;;;;;;25.77;18.47;;;1.80;99.90;;;;;;5014584;28;20204;-75
2022/12/10 08:29:05;;;;;;;24.60;18.47;;;1.90;99.90;;;;;;5014913;28;20184;-75
2022/12/10 08:31:31;;;;;;;24.17;19.13;;;2.00;99.90;;;;;;5015738;28;20220;-76
2022/12/10 08:33:56;;;;;;;24.53;19.07;;;2.00;99.90;;;;;;5014538;28;20179;-77
2022/12/10 08:36:22;;;;;;;23.90;19.00;;;2.00;99.90;;;;;;5015551;28;20202;-76
2022/12/10 08:38:48;;;;;;;24.10;19.63;;;2.10;99.90;;;;;;5014352;28;20187;-76
2022/12/10 08:41:20;;;;;;;30.30;20.27;;;2.10;99.90;;;;;;5014824;28;20534;-76
2022/12/10 08:43:47;;;;;;;29.30;22.60;;;2.10;99.90;;;;;;5014119;28;20638;-76
2022/12/10 08:46:14;;;;;;;26.07;21.03;;;2.20;99.90;;;;;;5014153;28;20203;-76
2022/12/10 08:48:40;;;;;;;33.53;22.57;;;2.10;99.90;;;;;;5014201;28;20199;-77
2022/12/10 08:51:07;;;;;;;30.13;23.67;;;2.20;99.90;;;;;;5014246;28;20222;-76
2022/12/10 08:53:34;;;;;;;31.20;23.67;;;2.20;99.90;;;;;;5015604;28;20180;-76
2022/12/10 08:55:59;;;;;;;31.37;23.77;;;2.30;99.90;;;;;;5014229;28;20211;-76
2022/12/10 08:59:00;;;;;;;29.30;23.10;;;2.30;99.90;;;;;;5013966;28;20175;-76
2022/12/10 09:04:49;;;;;;;25.93;18.80;;;2.20;99.90;;;;;;5015143;28;20242;-76
2022/12/10 09:08:08;;;;;;;24.47;18.73;;;2.00;99.90;;;;;;5015367;28;20187;-77
2022/12/10 09:10:36;;;;;;;24.60;18.00;;;2.10;99.90;;;;;;5014689;28;20270;-83
2022/12/10 09:13:02;;;;;;;22.70;17.83;;;2.20;99.90;;;;;;5014701;28;20215;-84
2022/12/10 09:15:28;;;;;;;22.30;16.77;;;2.30;99.90;;;;;;5013850;28;20218;-84
2022/12/10 09:17:53;;;;;;;21.17;16.77;;;2.40;99.90;;;;;;5013741;28;20207;-84
2022/12/10 09:20:19;;;;;;;20.63;16.07;;;2.50;99.90;;;;;;5013777;28;20176;-84
2022/12/10 09:22:44;;;;;;;23.53;18.30;;;2.50;99.90;;;;;;5014470;28;20176;-84
2022/12/10 09:25:10;;;;;;;28.70;21.67;;;2.60;99.90;;;;;;5014194;28;20219;-84
2022/12/10 09:27:36;;;;;;;21.27;16.57;;;2.70;99.90;;;;;;5013568;28;20186;-84
2022/12/10 09:30:04;;;;;;;19.73;16.37;;;2.70;99.90;;;;;;5014762;28;20172;-84
2022/12/10 09:32:29;;;;;;;18.50;15.17;;;2.70;99.90;;;;;;5013381;28;20190;-84
2022/12/10 09:34:55;;;;;;;19.40;15.93;;;2.60;99.90;;;;;;5014293;28;20199;-84
2022/12/10 09:37:21;;;;;;;19.37;16.57;;;2.50;99.90;;;;;;5013773;28;20195;-84
2022/12/10 09:39:46;;;;;;;21.03;17.20;;;2.50;99.90;;;;;;5014710;28;20160;-84
2022/12/10 09:42:39;;;;;;;20.53;16.37;;;2.50;99.90;;;;;;5016253;28;20176;-84
2022/12/10 09:45:35;;;;;;;25.27;15.30;;;2.40;99.90;;;;;;5014709;28;20577;-84
2022/12/10 09:48:29;;;;;;;16.10;13.40;;;2.40;99.90;;;;;;5013651;28;20278;-84
2022/12/10 09:51:06;;;;;;;16.63;13.70;;;2.30;99.90;;;;;;5012312;28;20207;-84
2022/12/10 09:53:58;;;;;;;16.90;13.57;;;2.30;99.90;;;;;;4994309;28;20191;-88
2022/12/10 09:56:35;;;;;;;16.90;13.47;;;2.30;99.90;;;;;;4993745;28;20211;-84
2022/12/10 09:59:10;;;;;;;16.43;13.67;;;2.20;99.90;;;;;;4994994;28;20168;-83
2022/12/10 10:01:37;;;;;;;17.80;14.43;;;2.20;99.90;;;;;;4995388;28;20175;-83
2022/12/10 10:04:03;;;;;;;20.80;14.60;;;2.20;99.90;;;;;;4996319;28;20211;-83
2022/12/10 10:06:39;;;;;;;14.57;12.57;;;2.20;99.90;;;;;;4993541;28;20200;-84
2022/12/10 10:09:09;;;;;;;18.23;14.77;;;2.20;99.90;;;;;;4993412;28;20180;-84
2022/12/10 10:11:36;;;;;;;21.67;14.77;;;2.10;99.90;;;;;;4994016;28;20195;-84
2022/12/10 10:14:08;;;;;;;16.33;13.07;;;2.10;99.90;;;;;;4993443;28;20184;-84
2022/12/10 10:16:56;;;;;;;17.23;14.10;;;2.10;99.90;;;;;;4992947;28;20224;-84
2022/12/10 10:19:27;;;;;;;17.43;13.83;;;2.10;99.90;;;;;;4994834;28;20238;-83
2022/12/10 10:21:54;;;;;;;16.60;13.20;;;2.20;99.90;;;;;;4993110;28;20177;-84
2022/12/10 10:24:22;;;;;;;15.40;12.23;;;2.10;99.90;;;;;;4993669;28;20184;-83
2022/12/10 10:26:49;;;;;;;13.87;11.27;;;2.00;99.90;;;;;;4993434;28;20191;-83
2022/12/10 10:29:21;;;;;;;16.27;12.20;;;2.00;99.90;;;;;;4993870;28;20180;-83
2022/12/10 10:31:47;;;;;;;14.27;12.53;;;2.00;99.90;;;;;;4996039;28;20188;-83
2022/12/10 10:34:21;;;;;;;15.57;12.00;;;2.20;99.90;;;;;;4995689;28;20180;-83
2022/12/10 10:36:54;;;;;;;12.87;11.23;;;2.20;99.90;;;;;;4995667;28;20214;-83
2022/12/10 10:39:25;;;;;;;14.37;11.87;;;2.30;99.90;;;;;;4996867;28;20171;-83
2022/12/10 10:41:54;;;;;;;16.57;12.67;;;2.50;99.90;;;;;;4995813;28;20557;-84
2022/12/10 10:44:21;;;;;;;18.27;12.83;;;2.70;99.90;;;;;;4995803;28;20184;-84
2022/12/10 10:46:50;;;;;;;16.93;11.87;;;2.90;99.90;;;;;;4994842;28;20196;-84
2022/12/10 10:49:26;;;;;;;19.90;12.73;;;3.00;99.90;;;;;;4993655;28;20192;-83
2022/12/10 10:51:57;;;;;;;52.00;19.90;;;3.10;99.90;;;;;;4993878;28;20171;-83
2022/12/10 10:54:41;;;;;;;46.97;21.23;;;3.20;99.90;;;;;;4993594;28;20259;-83
2022/12/10 10:57:23;;;;;;;12.67;10.57;;;3.30;99.90;;;;;;4993066;28;20235;-83
2022/12/10 10:59:55;;;;;;;13.60;11.27;;;3.40;99.90;;;;;;4993632;28;20177;-83
2022/12/10 11:02:37;;;;;;;18.00;12.10;;;3.80;99.90;;;;;;4992606;28;20172;-83
2022/12/10 11:05:15;;;;;;;15.60;11.40;;;3.90;99.90;;;;;;4993600;28;20291;-84
2022/12/10 11:07:42;;;;;;;14.53;10.97;;;3.90;99.90;;;;;;4997473;28;20172;-83
2022/12/10 11:10:21;;;;;;;12.43;10.33;;;4.00;99.90;;;;;;4996633;28;20204;-83
2022/12/10 11:13:05;;;;;;;15.13;11.17;;;3.80;99.90;;;;;;4996371;28;20187;-83
2022/12/10 11:15:32;;;;;;;12.47;10.13;;;3.70;99.90;;;;;;4997336;28;20257;-84
2022/12/10 11:17:58;;;;;;;13.43;9.70;;;3.80;99.90;;;;;;4997535;28;20243;-84
2022/12/10 11:20:24;;;;;;;11.80;9.47;;;3.80;99.90;;;;;;4997573;28;20218;-84
2022/12/10 11:23:09;;;;;;;12.57;9.20;;;3.80;99.90;;;;;;4996209;28;20192;-84
2022/12/10 11:25:58;;;;;;;15.57;10.23;;;3.90;99.90;;;;;;4996256;28;20204;-83
2022/12/10 11:29:01;;;;;;;13.27;9.53;;;4.10;99.90;;;;;;4997350;28;20181;-84
2022/12/10 11:32:00;;;;;;;11.53;9.03;;;4.10;99.90;;;;;;4996970;28;20186;-84
2022/12/10 11:34:56;;;;;;;10.50;9.10;;;4.00;99.90;;;;;;4996157;28;20188;-84
2022/12/10 11:37:43;;;;;;;10.43;9.10;;;3.90;99.90;;;;;;4996096;28;20204;-84
2022/12/10 11:40:31;;;;;;;11.30;9.07;;;3.90;99.90;;;;;;4996339;28;20172;-84
2022/12/10 11:43:05;;;;;;;10.30;8.63;;;3.70;99.90;;;;;;4996343;28;20176;-84
2022/12/10 11:46:15;;;;;;;12.63;8.83;;;3.60;99.90;;;;;;4996380;28;20254;-84
2022/12/10 11:48:55;;;;;;;10.23;9.07;;;3.50;99.90;;;;;;4995917;28;20239;-84
2022/12/10 11:51:34;;;;;;;10.30;8.27;;;3.50;99.90;;;;;;4995813;28;20182;-84
2022/12/10 11:54:15;;;;;;;11.73;8.73;;;3.30;99.90;;;;;;4996726;28;20180;-84
2022/12/10 11:56:44;;;;;;;11.83;8.93;;;3.00;99.90;;;;;;4997118;28;20228;-84
2022/12/10 11:59:41;;;;;;;12.20;8.87;;;3.10;99.90;;;;;;4997174;28;20265;-84
2022/12/10 12:02:58;;;;;;;11.53;8.13;;;3.20;99.90;;;;;;5001609;28;20181;-84
2022/12/10 12:05:32;;;;;;;10.63;7.97;;;3.10;99.90;;;;;;4999894;28;20283;-84
2022/12/10 12:08:04;;;;;;;11.90;10.27;;;3.10;99.90;;;;;;5001013;28;20183;-84
2022/12/10 12:10:47;;;;;;;11.80;9.63;;;3.20;99.90;;;;;;5000401;28;20580;-84
2022/12/10 12:13:22;;;;;;;10.83;9.27;;;3.20;99.90;;;;;;4999805;28;20183;-84
2022/12/10 12:16:02;;;;;;;12.60;10.10;;;3.30;99.90;;;;;;5000871;28;20203;-84
2022/12/10 12:18:44;;;;;;;11.53;9.60;;;3.30;99.90;;;;;;4998784;28;20184;-84
2022/12/10 12:21:12;;;;;;;9.20;8.17;;;3.10;99.90;;;;;;4997611;28;20172;-84
2022/12/10 12:23:53;;;;;;;10.70;9.17;;;3.20;99.90;;;;;;4997821;28;20180;-84
2022/12/10 12:26:24;;;;;;;10.27;8.17;;;3.20;99.90;;;;;;5000476;28;20675;-84
2022/12/10 12:29:12;;;;;;;11.03;9.27;;;3.20;99.90;;;;;;4999957;28;20176;-84
2022/12/10 12:31:41;;;;;;;8.23;7.33;;;3.30;99.90;;;;;;4999823;28;20176;-84
2022/12/10 12:34:25;;;;;;;9.07;7.97;;;3.20;99.90;;;;;;4999732;28;20262;-84
2022/12/10 12:36:51;;;;;;;8.70;7.80;;;3.20;99.90;;;;;;4999436;28;20262;-84
2022/12/10 12:39:28;;;;;;;12.27;9.10;;;3.20;99.90;;;;;;4997224;28;20271;-84
2022/12/10 12:42:02;;;;;;;9.27;7.93;;;3.20;99.90;;;;;;5000710;28;20199;-84
2022/12/10 12:44:49;;;;;;;9.40;8.00;;;3.10;99.90;;;;;;5001484;28;20168;-84
2022/12/10 12:47:21;;;;;;;8.53;7.50;;;2.90;99.90;;;;;;4999827;28;20191;-84
2022/12/10 12:49:48;;;;;;;9.90;7.93;;;2.90;99.90;;;;;;5001235;28;20172;-84
2022/12/10 12:52:43;;;;;;;8.47;7.57;;;3.00;99.90;;;;;;4998874;28;20575;-84
2022/12/10 12:55:20;;;;;;;7.83;7.03;;;3.00;99.90;;;;;;4998732;28;20231;-84
2022/12/10 12:57:54;;;;;;;9.83;6.90;;;3.00;99.90;;;;;;5000211;28;20195;-84
2022/12/10 13:00:23;;;;;;;7.30;6.60;;;2.90;99.90;;;;;;4999150;28;20168;-84
2022/12/10 13:03:07;;;;;;;6.73;6.03;;;2.90;99.90;;;;;;4999801;28;20165;-84
2022/12/10 13:05:38;;;;;;;6.77;6.07;;;2.90;99.90;;;;;;4998261;28;20271;-84
2022/12/10 13:08:19;;;;;;;9.63;7.37;;;2.80;99.90;;;;;;4998840;28;20184;-84
2022/12/10 13:10:45;;;;;;;8.67;7.47;;;2.60;99.90;;;;;;4998047;28;20210;-84
2022/12/10 13:13:35;;;;;;;35.93;18.47;;;2.60;99.90;;;;;;4998300;28;20254;-84
2022/12/10 13:16:44;;;;;;;18.13;11.10;;;2.60;99.90;;;;;;4997544;28;20307;-87
2022/12/10 13:19:33;;;;;;;8.43;6.70;;;2.50;99.90;;;;;;4997151;28;20176;-84
2022/12/10 13:22:07;;;;;;;7.67;6.37;;;2.50;99.90;;;;;;4997633;28;20269;-85
2022/12/10 13:24:36;;;;;;;7.03;6.33;;;2.50;99.90;;;;;;4997289;28;20173;-85
2022/12/10 13:27:14;;;;;;;8.50;6.70;;;2.60;99.90;;;;;;4999339;28;20188;-85
2022/12/10 13:30:12;;;;;;;9.33;6.70;;;2.50;99.90;;;;;;4997350;28;20176;-85
2022/12/10 13:32:38;;;;;;;7.00;6.27;;;2.40;99.90;;;;;;4986016;28;20184;-85
2022/12/10 13:35:09;;;;;;;7.83;7.03;;;2.50;99.90;;;;;;4998790;28;20204;-85
2022/12/10 13:37:38;;;;;;;7.53;6.73;;;2.40;99.90;;;;;;4998932;28;20243;-85